Time;durP1;ratioP1;P1;durP2;ratioP2;P2;SDS_P1;SDS_P2;PMS_P1;PMS_P2;Temp;Humidity;BMP_temperature;BMP_pressure;BME280_temperature;BME280_humidity;BME280_pressure;Samples;Min_cycle;Max_cycle;Signal;HPM_P1;HPM_P2
2023/10/04 00:00:59;;;;;;;12.90;1.95;;;;;;;;;;5020562;28;20755;-38
2023/10/04 00:03:27;;;;;;;12.60;2.03;;;;;;;;;;5027389;28;20056;-38
2023/10/04 00:05:55;;;;;;;15.82;2.40;;;;;;;;;;5015665;28;20037;-38
2023/10/04 00:08:25;;;;;;;10.75;2.28;;;;;;;;;;5028688;28;20045;-39
2023/10/04 00:10:54;;;;;;;12.57;1.90;;;;;;;;;;5007985;28;20041;-38
2023/10/04 00:13:22;;;;;;;12.88;2.40;;;;;;;;;;5026360;28;20037;-38
2023/10/04 00:15:50;;;;;;;10.75;2.55;;;;;;;;;;5021334;28;20086;-38
2023/10/04 00:18:19;;;;;;;14.90;2.30;;;;;;;;;;5020220;28;20044;-38
2023/10/04 00:20:47;;;;;;;14.25;2.20;;;;;;;;;;5025977;28;20047;-38
2023/10/04 00:23:15;;;;;;;13.57;2.67;;;;;;;;;;5016305;28;20048;-38
2023/10/04 00:25:45;;;;;;;14.25;3.00;;;;;;;;;;5027201;28;20037;-38
2023/10/04 00:28:13;;;;;;;16.05;2.38;;;;;;;;;;5024349;28;20045;-38
2023/10/04 00:30:40;;;;;;;13.70;2.22;;;;;;;;;;5022105;28;20621;-39
2023/10/04 00:33:09;;;;;;;17.30;2.50;;;;;;;;;;5030881;28;20045;-38
2023/10/04 00:35:41;;;;;;;15.23;2.60;;;;;;;;;;5019178;28;20049;-38
2023/10/04 00:38:13;;;;;;;17.08;2.70;;;;;;;;;;5029955;28;20110;-38
2023/10/04 00:40:43;;;;;;;16.85;2.25;;;;;;;;;;5027928;28;20041;-39
2023/10/04 00:43:13;;;;;;;15.55;2.60;;;;;;;;;;5018962;28;20064;-38
2023/10/04 00:45:42;;;;;;;14.38;2.60;;;;;;;;;;5025508;28;20044;-38
2023/10/04 00:48:13;;;;;;;16.40;3.63;;;;;;;;;;5020275;28;20045;-38
2023/10/04 00:50:42;;;;;;;16.60;2.63;;;;;;;;;;5027624;28;20130;-38
2023/10/04 00:53:12;;;;;;;12.35;2.45;;;;;;;;;;5021449;28;20045;-38
2023/10/04 00:55:43;;;;;;;14.82;2.53;;;;;;;;;;5021438;28;20045;-39
2023/10/04 00:58:12;;;;;;;14.65;2.30;;;;;;;;;;5029034;28;20044;-38
2023/10/04 01:00:43;;;;;;;15.70;2.20;;;;;;;;;;5017390;28;20048;-39
2023/10/04 01:03:14;;;;;;;16.52;2.78;;;;;;;;;;5028516;28;20515;-38
2023/10/04 01:05:47;;;;;;;10.73;2.40;;;;;;;;;;5020652;28;20045;-38
2023/10/04 01:08:16;;;;;;;16.00;2.30;;;;;;;;;;4998670;28;20087;-38
2023/10/04 01:10:46;;;;;;;14.68;2.70;;;;;;;;;;4987297;28;20044;-42
2023/10/04 01:13:16;;;;;;;14.90;2.60;;;;;;;;;;5000876;28;20048;-38
2023/10/04 01:15:44;;;;;;;15.73;2.22;;;;;;;;;;5014038;28;20055;-39
2023/10/04 01:18:15;;;;;;;19.63;2.80;;;;;;;;;;5009899;28;20033;-38
2023/10/04 01:20:46;;;;;;;13.40;2.60;;;;;;;;;;5000108;28;20040;-38
2023/10/04 01:23:16;;;;;;;14.18;2.55;;;;;;;;;;4984873;28;20091;-38
2023/10/04 01:25:44;;;;;;;14.80;2.37;;;;;;;;;;5025839;28;20925;-38
2023/10/04 01:28:13;;;;;;;13.38;2.15;;;;;;;;;;5024672;28;20040;-38
2023/10/04 01:30:43;;;;;;;12.35;2.05;;;;;;;;;;5021463;28;20045;-38
2023/10/04 01:33:15;;;;;;;13.07;2.10;;;;;;;;;;5027221;28;20127;-38
2023/10/04 01:35:45;;;;;;;13.73;2.35;;;;;;;;;;5023861;28;20049;-39
2023/10/04 01:38:13;;;;;;;13.13;2.53;;;;;;;;;;5027727;28;20051;-39
2023/10/04 01:40:43;;;;;;;14.73;2.33;;;;;;;;;;5028125;28;20045;-38
2023/10/04 01:43:15;;;;;;;12.57;1.83;;;;;;;;;;5024103;28;20068;-38
2023/10/04 01:45:45;;;;;;;13.55;2.15;;;;;;;;;;5013016;28;20057;-38
2023/10/04 01:48:19;;;;;;;14.30;2.53;;;;;;;;;;5015220;28;20046;-38
2023/10/04 01:50:48;;;;;;;16.93;3.67;;;;;;;;;;5001675;28;20056;-39
2023/10/04 01:53:17;;;;;;;12.63;1.95;;;;;;;;;;5009586;28;20053;-38
2023/10/04 01:55:46;;;;;;;11.15;2.65;;;;;;;;;;5008151;28;20041;-39
2023/10/04 01:58:15;;;;;;;18.38;2.03;;;;;;;;;;5016359;28;20119;-38
2023/10/04 02:00:43;;;;;;;15.38;2.13;;;;;;;;;;5004525;28;20037;-38
2023/10/04 02:03:11;;;;;;;14.00;2.00;;;;;;;;;;5011037;28;20050;-38
2023/10/04 02:05:40;;;;;;;14.10;1.75;;;;;;;;;;5004075;28;20964;-39
2023/10/04 02:08:09;;;;;;;15.90;2.20;;;;;;;;;;5014137;28;20037;-39
2023/10/04 02:10:37;;;;;;;13.85;2.13;;;;;;;;;;4997024;28;20041;-38
2023/10/04 02:13:08;;;;;;;15.63;1.77;;;;;;;;;;5008022;28;20550;-39
2023/10/04 02:15:36;;;;;;;16.37;2.47;;;;;;;;;;4994572;28;20072;-38
2023/10/04 02:18:04;;;;;;;10.07;2.03;;;;;;;;;;5010133;28;20045;-41
2023/10/04 02:20:33;;;;;;;16.77;2.58;;;;;;;;;;4995024;28;20045;-39
2023/10/04 02:23:03;;;;;;;13.48;2.80;;;;;;;;;;5012071;28;20060;-38
2023/10/04 02:25:31;;;;;;;10.50;2.30;;;;;;;;;;4999560;28;20053;-38
2023/10/04 02:28:11;;;;;;;10.83;2.13;;;;;;;;;;5009715;28;20123;-38
2023/10/04 02:30:41;;;;;;;13.82;2.83;;;;;;;;;;5010828;28;20041;-38
2023/10/04 02:33:13;;;;;;;14.50;1.52;;;;;;;;;;5001221;28;20695;-38
2023/10/04 02:35:44;;;;;;;8.18;1.90;;;;;;;;;;5016787;28;20613;-38
2023/10/04 02:38:19;;;;;;;13.20;2.33;;;;;;;;;;5002248;28;20049;-38
2023/10/04 02:40:48;;;;;;;10.87;1.87;;;;;;;;;;5013508;28;20041;-38
2023/10/04 02:43:16;;;;;;;14.90;2.22;;;;;;;;;;5008733;28;20035;-38
2023/10/04 02:45:47;;;;;;;14.00;2.10;;;;;;;;;;4987980;28;20528;-38
2023/10/04 02:48:15;;;;;;;16.73;2.58;;;;;;;;;;5007478;28;20056;-38
2023/10/04 02:50:44;;;;;;;15.40;1.60;;;;;;;;;;5013044;28;20033;-38
2023/10/04 02:53:16;;;;;;;20.27;2.33;;;;;;;;;;5001131;28;20047;-38
2023/10/04 02:55:44;;;;;;;10.80;2.40;;;;;;;;;;5008416;28;20136;-40
2023/10/04 02:58:13;;;;;;;10.40;2.13;;;;;;;;;;5003533;28;20037;-38
2023/10/04 03:00:44;;;;;;;19.17;2.30;;;;;;;;;;5011338;28;20045;-38
2023/10/04 03:03:14;;;;;;;8.85;2.03;;;;;;;;;;5000122;28;20061;-38
2023/10/04 03:05:43;;;;;;;12.10;2.07;;;;;;;;;;5013205;28;20041;-38
2023/10/04 03:08:11;;;;;;;14.02;1.80;;;;;;;;;;4984036;28;20061;-38
2023/10/04 03:10:40;;;;;;;15.65;1.80;;;;;;;;;;5007282;28;20041;-38
2023/10/04 03:13:15;;;;;;;18.52;1.80;;;;;;;;;;5010264;28;20054;-38
2023/10/04 03:15:45;;;;;;;15.20;2.10;;;;;;;;;;5011992;28;20123;-38
2023/10/04 03:18:17;;;;;;;14.33;2.50;;;;;;;;;;5005951;28;20495;-37
2023/10/04 03:20:54;;;;;;;10.38;2.13;;;;;;;;;;5009895;28;20042;-38
2023/10/04 03:23:23;;;;;;;14.02;2.08;;;;;;;;;;5008711;28;20037;-38
2023/10/04 03:25:52;;;;;;;12.82;2.63;;;;;;;;;;5010218;28;20088;-38
2023/10/04 03:28:26;;;;;;;11.60;2.00;;;;;;;;;;5003249;28;20050;-37
2023/10/04 03:30:54;;;;;;;18.93;3.33;;;;;;;;;;5012741;28;20041;-38
2023/10/04 03:33:23;;;;;;;13.38;2.30;;;;;;;;;;5003281;28;20125;-38
2023/10/04 03:35:53;;;;;;;13.93;2.20;;;;;;;;;;5011627;28;20060;-38
2023/10/04 03:38:21;;;;;;;12.68;2.60;;;;;;;;;;4996843;28;20562;-38
2023/10/04 03:40:49;;;;;;;9.30;1.92;;;;;;;;;;5007989;28;20040;-38
2023/10/04 03:43:16;;;;;;;15.87;3.03;;;;;;;;;;5007505;28;20045;-38
2023/10/04 03:45:44;;;;;;;15.32;2.90;;;;;;;;;;5001698;28;20046;-39
2023/10/04 03:48:15;;;;;;;12.27;1.88;;;;;;;;;;5010254;28;20099;-38
2023/10/04 03:50:46;;;;;;;15.23;2.00;;;;;;;;;;5004961;28;20120;-38
2023/10/04 03:53:15;;;;;;;9.45;2.00;;;;;;;;;;5008275;28;20041;-38
2023/10/04 03:55:43;;;;;;;18.03;2.80;;;;;;;;;;5005972;28;20459;-38
2023/10/04 03:58:12;;;;;;;15.63;2.30;;;;;;;;;;5003082;28;20042;-38
2023/10/04 04:00:40;;;;;;;11.55;2.05;;;;;;;;;;5013367;28;20496;-38
2023/10/04 04:03:10;;;;;;;9.70;2.10;;;;;;;;;;5015126;28;20096;-38
2023/10/04 04:05:41;;;;;;;13.63;2.70;;;;;;;;;;5008118;28;20041;-38
2023/10/04 04:08:12;;;;;;;16.10;2.07;;;;;;;;;;5016629;28;20033;-38
2023/10/04 04:10:39;;;;;;;15.73;2.55;;;;;;;;;;5007866;28;20049;-38
2023/10/04 04:13:07;;;;;;;14.23;1.88;;;;;;;;;;5011516;28;20352;-38
2023/10/04 04:15:36;;;;;;;20.33;2.05;;;;;;;;;;5010686;28;20041;-38
2023/10/04 04:18:06;;;;;;;21.05;2.28;;;;;;;;;;5006461;28;20314;-40
2023/10/04 04:20:35;;;;;;;13.90;2.07;;;;;;;;;;5036136;28;20092;-38
2023/10/04 04:23:04;;;;;;;13.10;2.65;;;;;;;;;;5016441;28;20419;-37
2023/10/04 04:25:34;;;;;;;14.90;2.63;;;;;;;;;;5004904;28;20052;-38
2023/10/04 04:28:03;;;;;;;17.20;2.50;;;;;;;;;;5003785;28;20492;-38
2023/10/04 04:30:32;;;;;;;15.48;2.40;;;;;;;;;;5012869;28;20061;-38
2023/10/04 04:33:03;;;;;;;12.37;2.50;;;;;;;;;;5005102;28;20136;-39
2023/10/04 04:35:47;;;;;;;11.05;2.10;;;;;;;;;;5008642;28;20557;-38
2023/10/04 04:38:16;;;;;;;12.45;1.65;;;;;;;;;;5005333;28;20500;-38
2023/10/04 04:40:48;;;;;;;14.00;2.45;;;;;;;;;;5014042;28;20041;-39
2023/10/04 04:43:26;;;;;;;20.70;3.25;;;;;;;;;;5010345;28;20376;-38
2023/10/04 04:45:54;;;;;;;18.00;2.47;;;;;;;;;;5007570;28;20037;-38
2023/10/04 04:48:23;;;;;;;15.07;2.22;;;;;;;;;;5013137;28;20095;-38
2023/10/04 04:50:52;;;;;;;15.55;2.15;;;;;;;;;;4999531;28;20875;-38
2023/10/04 04:53:22;;;;;;;15.57;2.08;;;;;;;;;;5006995;28;20072;-37
2023/10/04 04:55:51;;;;;;;16.67;2.40;;;;;;;;;;5005410;28;20618;-38
2023/10/04 04:58:20;;;;;;;13.77;2.07;;;;;;;;;;5000707;28;20048;-38
2023/10/04 05:00:50;;;;;;;17.67;2.20;;;;;;;;;;5003437;28;20069;-38
2023/10/04 05:03:18;;;;;;;13.75;2.17;;;;;;;;;;5010443;28;20061;-38
2023/10/04 05:05:49;;;;;;;15.63;2.33;;;;;;;;;;5002104;28;20049;-38
2023/10/04 05:08:18;;;;;;;13.63;2.13;;;;;;;;;;5008805;28;20046;-37
2023/10/04 05:10:48;;;;;;;9.33;1.57;;;;;;;;;;5003187;28;20080;-38
2023/10/04 05:13:18;;;;;;;13.27;1.85;;;;;;;;;;5006130;28;20037;-38
2023/10/04 05:15:46;;;;;;;11.65;2.63;;;;;;;;;;4998456;28;20084;-38
2023/10/04 05:18:16;;;;;;;18.27;2.38;;;;;;;;;;4999438;28;20099;-37
2023/10/04 05:20:45;;;;;;;13.52;2.10;;;;;;;;;;4993670;28;20151;-39
2023/10/04 05:23:13;;;;;;;7.10;1.93;;;;;;;;;;5010218;28;20052;-38
2023/10/04 05:25:41;;;;;;;11.43;1.60;;;;;;;;;;5001972;28;20037;-38
2023/10/04 05:28:11;;;;;;;12.45;1.73;;;;;;;;;;5009222;28;20033;-38
2023/10/04 05:30:43;;;;;;;11.43;2.00;;;;;;;;;;5000305;28;20042;-38
2023/10/04 05:33:10;;;;;;;15.48;2.28;;;;;;;;;;5001009;28;20115;-38
2023/10/04 05:35:40;;;;;;;10.57;2.50;;;;;;;;;;5009056;28;20053;-38
2023/10/04 05:38:14;;;;;;;15.63;2.13;;;;;;;;;;5002253;28;20041;-38
2023/10/04 05:40:43;;;;;;;12.13;1.88;;;;;;;;;;5003363;28;20049;-38
2023/10/04 05:43:12;;;;;;;13.38;1.95;;;;;;;;;;4994540;28;20166;-38
2023/10/04 05:45:42;;;;;;;12.90;1.55;;;;;;;;;;5007651;28;20128;-38
2023/10/04 05:48:11;;;;;;;12.73;1.77;;;;;;;;;;5005126;28;20450;-38
2023/10/04 05:50:39;;;;;;;11.32;2.05;;;;;;;;;;4993437;28;20393;-37
2023/10/04 05:53:08;;;;;;;12.38;2.10;;;;;;;;;;5032673;28;20069;-37
2023/10/04 05:55:37;;;;;;;11.48;1.60;;;;;;;;;;5003337;28;20054;-38
2023/10/04 05:58:07;;;;;;;15.07;2.58;;;;;;;;;;5004415;28;20045;-38
2023/10/04 06:00:37;;;;;;;10.80;1.70;;;;;;;;;;5002022;28;20500;-37
2023/10/04 06:03:07;;;;;;;11.57;1.63;;;;;;;;;;5004398;28;20049;-38
2023/10/04 06:05:37;;;;;;;10.20;2.15;;;;;;;;;;5005624;28;20484;-37
2023/10/04 06:08:06;;;;;;;10.23;1.98;;;;;;;;;;5007783;28;20042;-38
2023/10/04 06:10:34;;;;;;;10.25;1.70;;;;;;;;;;4996559;28;20038;-38
2023/10/04 06:13:02;;;;;;;8.87;1.50;;;;;;;;;;5007805;28;20040;-38
2023/10/04 06:15:30;;;;;;;12.98;2.55;;;;;;;;;;4998383;28;20041;-38
2023/10/04 06:17:59;;;;;;;8.73;1.85;;;;;;;;;;5003206;28;20519;-37
2023/10/04 06:20:32;;;;;;;11.02;1.80;;;;;;;;;;4999555;28;20046;-38
2023/10/04 06:23:05;;;;;;;10.63;1.77;;;;;;;;;;5007747;28;20053;-38
2023/10/04 06:25:36;;;;;;;13.37;1.60;;;;;;;;;;4998729;28;20076;-38
2023/10/04 06:28:04;;;;;;;10.73;1.70;;;;;;;;;;5036300;28;20407;-38
2023/10/04 06:30:33;;;;;;;11.35;1.88;;;;;;;;;;5004252;28;20042;-38
2023/10/04 06:33:01;;;;;;;13.38;2.40;;;;;;;;;;5001633;28;20128;-38
2023/10/04 06:35:32;;;;;;;12.68;2.10;;;;;;;;;;5007817;28;20045;-38
2023/10/04 06:38:00;;;;;;;15.07;1.60;;;;;;;;;;4999601;28;20052;-38
2023/10/04 06:40:31;;;;;;;10.23;1.38;;;;;;;;;;5011655;28;20053;-38
2023/10/04 06:42:59;;;;;;;7.35;1.42;;;;;;;;;;5003055;28;20076;-38
2023/10/04 06:45:28;;;;;;;9.40;1.58;;;;;;;;;;5004294;28;20037;-38
2023/10/04 06:47:57;;;;;;;10.38;1.65;;;;;;;;;;4997866;28;20130;-38
2023/10/04 06:50:28;;;;;;;11.40;1.87;;;;;;;;;;5007718;28;20041;-37
2023/10/04 06:53:01;;;;;;;10.30;1.77;;;;;;;;;;5001015;28;20034;-38
2023/10/04 06:55:30;;;;;;;11.20;2.00;;;;;;;;;;5009274;28;20170;-38
2023/10/04 06:57:58;;;;;;;12.80;1.92;;;;;;;;;;5000746;28;20455;-38
2023/10/04 07:00:30;;;;;;;7.47;2.05;;;;;;;;;;5002862;28;20045;-38
2023/10/04 07:03:01;;;;;;;10.83;1.73;;;;;;;;;;5002600;28;20503;-37
2023/10/04 07:05:31;;;;;;;11.85;2.00;;;;;;;;;;5009544;28;20052;-38
2023/10/04 07:08:03;;;;;;;11.07;1.67;;;;;;;;;;5004196;28;20033;-37
2023/10/04 07:10:31;;;;;;;11.18;1.70;;;;;;;;;;5001831;28;20072;-37
2023/10/04 07:13:00;;;;;;;18.08;1.90;;;;;;;;;;5000578;28;20064;-37
2023/10/04 07:15:30;;;;;;;11.27;1.37;;;;;;;;;;5003693;28;20108;-38
2023/10/04 07:18:00;;;;;;;16.30;1.38;;;;;;;;;;5003876;28;20651;-37
2023/10/04 07:20:28;;;;;;;13.52;1.58;;;;;;;;;;4988093;28;20037;-38
2023/10/04 07:22:59;;;;;;;10.00;1.73;;;;;;;;;;5004222;28;20490;-38
2023/10/04 07:25:28;;;;;;;11.43;2.15;;;;;;;;;;4998404;28;20073;-37
2023/10/04 07:27:57;;;;;;;7.77;1.57;;;;;;;;;;4996281;28;20061;-37
2023/10/04 07:30:25;;;;;;;8.85;1.60;;;;;;;;;;4979171;28;20052;-42
2023/10/04 07:32:55;;;;;;;14.30;1.55;;;;;;;;;;4995129;28;20125;-37
2023/10/04 07:35:25;;;;;;;13.38;1.38;;;;;;;;;;4986107;28;20072;-38
2023/10/04 07:37:53;;;;;;;15.10;1.77;;;;;;;;;;4995675;28;20045;-38
2023/10/04 07:40:22;;;;;;;10.17;1.60;;;;;;;;;;4997511;28;20096;-37
2023/10/04 07:42:53;;;;;;;12.65;1.73;;;;;;;;;;4987745;28;20523;-37
2023/10/04 07:45:22;;;;;;;11.63;1.80;;;;;;;;;;4958410;28;20041;-38
2023/10/04 07:47:50;;;;;;;8.80;1.65;;;;;;;;;;4988244;28;20037;-38
2023/10/04 07:50:22;;;;;;;8.82;1.40;;;;;;;;;;4999230;28;20807;-38
2023/10/04 07:52:51;;;;;;;6.10;1.13;;;;;;;;;;4987608;28;20124;-38
2023/10/04 07:55:19;;;;;;;9.88;1.85;;;;;;;;;;4994427;28;20044;-38
2023/10/04 07:57:47;;;;;;;7.80;1.00;;;;;;;;;;4975673;28;20045;-38
2023/10/04 08:00:16;;;;;;;13.40;2.00;;;;;;;;;;4634942;28;10000529;-39
2023/10/04 08:02:49;;;;;;;11.80;1.50;;;;;;;;;;4995701;28;20554;-39
2023/10/04 08:05:19;;;;;;;11.45;1.25;;;;;;;;;;4996342;28;20103;-38
2023/10/04 08:07:48;;;;;;;12.83;1.67;;;;;;;;;;4976615;28;20046;-38
2023/10/04 08:10:16;;;;;;;10.68;1.30;;;;;;;;;;4991846;28;20085;-38
2023/10/04 08:12:44;;;;;;;10.05;1.65;;;;;;;;;;4988139;28;20061;-38
2023/10/04 08:15:14;;;;;;;11.40;1.20;;;;;;;;;;4649803;28;9999686;-38
2023/10/04 08:17:43;;;;;;;10.32;1.48;;;;;;;;;;4967687;28;20060;-38
2023/10/04 08:20:13;;;;;;;6.47;1.15;;;;;;;;;;4968245;28;20508;-38
2023/10/04 08:22:41;;;;;;;9.48;1.92;;;;;;;;;;4930094;28;20056;-38
2023/10/04 08:25:09;;;;;;;12.00;1.20;;;;;;;;;;4942309;28;20045;-38
2023/10/04 08:27:37;;;;;;;8.90;1.60;;;;;;;;;;4965470;28;20033;-38
2023/10/04 08:30:06;;;;;;;8.93;1.50;;;;;;;;;;4961161;28;21454;-38
2023/10/04 08:32:34;;;;;;;10.23;1.77;;;;;;;;;;4937954;28;20062;-38
2023/10/04 08:35:03;;;;;;;10.35;1.63;;;;;;;;;;4964573;28;20461;-38
2023/10/04 08:37:31;;;;;;;14.57;1.30;;;;;;;;;;4956659;28;20131;-38
2023/10/04 08:40:04;;;;;;;12.00;1.73;;;;;;;;;;4928959;28;20940;-40
2023/10/04 08:42:33;;;;;;;8.27;1.50;;;;;;;;;;4964952;28;20060;-38
2023/10/04 08:45:02;;;;;;;9.48;1.15;;;;;;;;;;4965712;28;20148;-39
2023/10/04 08:47:33;;;;;;;11.70;1.60;;;;;;;;;;4937598;28;20623;-38
2023/10/04 08:50:09;;;;;;;10.63;1.60;;;;;;;;;;4961660;28;20087;-38
2023/10/04 08:52:37;;;;;;;9.18;1.90;;;;;;;;;;4965969;28;20129;-38
2023/10/04 08:55:07;;;;;;;11.13;1.40;;;;;;;;;;4963724;28;20507;-39
2023/10/04 08:57:38;;;;;;;8.98;1.42;;;;;;;;;;4962211;28;20061;-38
2023/10/04 09:00:13;;;;;;;10.43;1.50;;;;;;;;;;4951080;28;20558;-38
2023/10/04 09:02:56;;;;;;;11.73;1.47;;;;;;;;;;4950380;28;20057;-38
2023/10/04 09:05:28;;;;;;;7.57;1.40;;;;;;;;;;4967050;28;20233;-39
2023/10/04 09:07:56;;;;;;;11.65;1.77;;;;;;;;;;4961309;28;20048;-38
2023/10/04 09:10:25;;;;;;;10.35;1.73;;;;;;;;;;4958470;28;20037;-38
2023/10/04 09:12:53;;;;;;;12.57;1.75;;;;;;;;;;4965927;28;20535;-39
2023/10/04 09:15:26;;;;;;;5.27;1.13;;;;;;;;;;4958724;28;20048;-39
2023/10/04 09:17:57;;;;;;;10.07;1.85;;;;;;;;;;4958739;28;21269;-38
2023/10/04 09:20:29;;;;;;;11.60;1.85;;;;;;;;;;4971126;28;20054;-38
2023/10/04 09:22:59;;;;;;;7.82;0.90;;;;;;;;;;4955494;28;20046;-38
2023/10/04 09:25:37;;;;;;;8.60;1.00;;;;;;;;;;4963557;28;20045;-39
2023/10/04 09:28:08;;;;;;;9.27;1.67;;;;;;;;;;4960613;28;20029;-38
2023/10/04 09:30:37;;;;;;;8.10;1.25;;;;;;;;;;4969266;28;20903;-39
2023/10/04 09:33:05;;;;;;;8.27;1.05;;;;;;;;;;4949279;28;20551;-38
2023/10/04 09:35:45;;;;;;;13.25;2.03;;;;;;;;;;4964461;28;20047;-39
2023/10/04 09:38:16;;;;;;;8.77;1.60;;;;;;;;;;4964353;28;20422;-38
2023/10/04 09:40:51;;;;;;;8.63;1.20;;;;;;;;;;4959353;28;21020;-38
2023/10/04 09:43:30;;;;;;;9.13;1.33;;;;;;;;;;4964505;28;20803;-38
2023/10/04 09:45:58;;;;;;;9.40;1.15;;;;;;;;;;4953775;28;20142;-38
2023/10/04 09:48:31;;;;;;;8.57;1.33;;;;;;;;;;4969807;28;20057;-38
2023/10/04 09:51:01;;;;;;;6.88;1.08;;;;;;;;;;4956310;28;20052;-38
2023/10/04 09:53:29;;;;;;;11.47;1.83;;;;;;;;;;4978368;28;20033;-38
2023/10/04 09:56:00;;;;;;;5.68;0.70;;;;;;;;;;4982621;28;20164;-38
2023/10/04 09:58:29;;;;;;;10.82;1.40;;;;;;;;;;4983875;28;20053;-38
2023/10/04 10:00:59;;;;;;;9.18;1.45;;;;;;;;;;4970318;28;20152;-38
2023/10/04 10:03:30;;;;;;;7.35;1.60;;;;;;;;;;4977335;28;20062;-38
2023/10/04 10:06:02;;;;;;;10.70;1.57;;;;;;;;;;4961775;28;20065;-38
2023/10/04 10:08:33;;;;;;;9.43;1.73;;;;;;;;;;4984817;28;20496;-38
2023/10/04 10:11:02;;;;;;;11.52;2.47;;;;;;;;;;4997522;28;20030;-38
2023/10/04 10:13:31;;;;;;;11.85;1.73;;;;;;;;;;4978849;28;20642;-38
2023/10/04 10:15:58;;;;;;;8.87;1.80;;;;;;;;;;4287405;28;10001038;-38
2023/10/04 10:18:28;;;;;;;10.07;2.00;;;;;;;;;;4975351;28;20046;-38
2023/10/04 10:20:58;;;;;;;8.20;1.63;;;;;;;;;;4992080;28;20128;-38
2023/10/04 10:23:27;;;;;;;13.40;1.48;;;;;;;;;;4992310;28;20049;-38
2023/10/04 10:26:15;;;;;;;8.20;1.48;;;;;;;;;;4995343;28;20261;-38
2023/10/04 10:28:45;;;;;;;7.80;1.17;;;;;;;;;;4999297;28;20061;-38
2023/10/04 10:31:18;;;;;;;10.13;1.40;;;;;;;;;;4995179;28;20033;-38
2023/10/04 10:33:47;;;;;;;8.93;1.70;;;;;;;;;;5001191;28;20129;-38
2023/10/04 10:36:22;;;;;;;7.68;1.20;;;;;;;;;;4996551;28;20577;-38
2023/10/04 10:38:52;;;;;;;8.48;1.30;;;;;;;;;;4995191;28;20041;-38
2023/10/04 10:41:41;;;;;;;7.57;1.35;;;;;;;;;;4981231;28;20488;-38
2023/10/04 10:44:19;;;;;;;7.95;1.27;;;;;;;;;;4995052;28;20503;-39
2023/10/04 10:46:53;;;;;;;8.03;1.00;;;;;;;;;;4994291;28;20491;-38
2023/10/04 10:49:39;;;;;;;6.40;1.30;;;;;;;;;;4997056;28;20045;-38
2023/10/04 10:52:09;;;;;;;5.07;1.30;;;;;;;;;;4996507;28;20479;-39
2023/10/04 10:54:38;;;;;;;9.27;1.52;;;;;;;;;;4993655;28;20052;-39
2023/10/04 10:57:06;;;;;;;8.45;1.70;;;;;;;;;;5005986;28;20037;-39
2023/10/04 10:59:34;;;;;;;7.40;1.53;;;;;;;;;;4986442;28;20045;-38
2023/10/04 11:02:04;;;;;;;6.00;1.20;;;;;;;;;;5005116;28;20534;-38
2023/10/04 11:04:32;;;;;;;7.80;1.55;;;;;;;;;;4992728;28;20119;-38
2023/10/04 11:07:00;;;;;;;10.73;2.10;;;;;;;;;;5002756;28;20435;-38
2023/10/04 11:09:37;;;;;;;6.72;1.20;;;;;;;;;;4991230;28;20034;-38
2023/10/04 11:12:17;;;;;;;8.10;1.77;;;;;;;;;;4991726;28;20049;-38
2023/10/04 11:14:45;;;;;;;6.75;1.15;;;;;;;;;;4993380;28;20063;-38
2023/10/04 11:17:32;;;;;;;7.60;1.35;;;;;;;;;;4990599;28;20060;-36
2023/10/04 11:20:09;;;;;;;5.60;1.00;;;;;;;;;;5001074;28;20060;-38
2023/10/04 11:22:37;;;;;;;10.20;1.70;;;;;;;;;;4987865;28;20599;-37
2023/10/04 11:25:06;;;;;;;8.53;1.37;;;;;;;;;;4999161;28;20052;-38
2023/10/04 11:27:36;;;;;;;8.75;1.40;;;;;;;;;;4987861;28;20037;-37
2023/10/04 11:30:05;;;;;;;9.20;2.33;;;;;;;;;;4997499;28;20076;-38
2023/10/04 11:32:33;;;;;;;5.22;1.10;;;;;;;;;;4981970;28;20045;-37
2023/10/04 11:35:07;;;;;;;10.48;1.52;;;;;;;;;;4991664;28;20479;-37
2023/10/04 11:37:39;;;;;;;6.03;1.20;;;;;;;;;;4993733;28;20486;-37
2023/10/04 11:40:10;;;;;;;5.30;1.40;;;;;;;;;;4989356;28;20054;-38
2023/10/04 11:42:39;;;;;;;8.05;1.40;;;;;;;;;;4998177;28;20045;-38
2023/10/04 11:45:18;;;;;;;9.70;1.27;;;;;;;;;;4996084;28;20034;-37
2023/10/04 11:47:56;;;;;;;7.00;1.10;;;;;;;;;;4994277;28;20037;-37
2023/10/04 11:50:24;;;;;;;11.87;2.20;;;;;;;;;;4988149;28;20060;-38
2023/10/04 11:52:54;;;;;;;7.35;1.23;;;;;;;;;;4994309;28;20567;-37
2023/10/04 11:55:25;;;;;;;7.70;1.30;;;;;;;;;;4998551;28;20045;-37
2023/10/04 11:58:04;;;;;;;7.28;0.90;;;;;;;;;;4987907;28;20037;-38
2023/10/04 12:00:32;;;;;;;6.68;0.98;;;;;;;;;;4989116;28;20070;-37
2023/10/04 12:03:00;;;;;;;9.13;1.33;;;;;;;;;;4996614;28;20952;-39
2023/10/04 12:05:28;;;;;;;5.57;1.08;;;;;;;;;;4971889;28;20045;-37
2023/10/04 12:07:58;;;;;;;8.73;1.15;;;;;;;;;;4970633;28;20056;-38
2023/10/04 12:10:27;;;;;;;4.55;0.93;;;;;;;;;;4972342;28;20049;-37
2023/10/04 12:12:57;;;;;;;4.60;0.80;;;;;;;;;;4970671;28;20043;-37
2023/10/04 12:15:26;;;;;;;9.03;1.13;;;;;;;;;;4985909;28;20136;-37
2023/10/04 12:17:53;;;;;;;7.90;1.17;;;;;;;;;;4970474;28;20212;-37
2023/10/04 12:20:22;;;;;;;6.07;1.08;;;;;;;;;;4982970;28;20400;-37
2023/10/04 12:22:50;;;;;;;5.75;1.35;;;;;;;;;;4974448;28;20713;-37
2023/10/04 12:25:21;;;;;;;7.20;1.15;;;;;;;;;;4969404;28;20049;-37
2023/10/04 12:27:51;;;;;;;6.43;1.30;;;;;;;;;;4282586;28;10000736;-37
2023/10/04 12:30:24;;;;;;;13.35;1.85;;;;;;;;;;5006484;28;20069;-37
2023/10/04 12:32:53;;;;;;;7.65;1.30;;;;;;;;;;4980382;28;20597;-37
2023/10/04 12:35:23;;;;;;;5.97;1.17;;;;;;;;;;4977079;28;20062;-37
2023/10/04 12:37:51;;;;;;;5.22;1.13;;;;;;;;;;4977524;28;20041;-38
2023/10/04 12:40:23;;;;;;;5.80;1.00;;;;;;;;;;4983331;28;20057;-37
2023/10/04 12:42:52;;;;;;;5.43;1.10;;;;;;;;;;4970392;28;20124;-38
2023/10/04 12:45:21;;;;;;;7.30;1.25;;;;;;;;;;4982652;28;20041;-38
2023/10/04 12:47:49;;;;;;;10.40;1.63;;;;;;;;;;4970435;28;20053;-37
2023/10/04 12:50:18;;;;;;;6.82;1.63;;;;;;;;;;4978376;28;20046;-38
2023/10/04 12:52:46;;;;;;;7.28;1.25;;;;;;;;;;4965775;28;20787;-38
2023/10/04 12:55:14;;;;;;;5.20;1.50;;;;;;;;;;4977300;28;20588;-37
2023/10/04 12:57:44;;;;;;;6.53;1.17;;;;;;;;;;4288387;28;10000711;-37
2023/10/04 13:00:18;;;;;;;4.00;1.00;;;;;;;;;;4990403;28;20096;-38
2023/10/04 13:02:48;;;;;;;5.03;0.98;;;;;;;;;;4960631;28;20144;-38
2023/10/04 13:05:19;;;;;;;8.57;1.38;;;;;;;;;;4977688;28;20227;-38
2023/10/04 13:07:48;;;;;;;6.90;1.20;;;;;;;;;;4977489;28;20041;-37
2023/10/04 13:10:16;;;;;;;7.75;0.90;;;;;;;;;;4980790;28;20045;-38
2023/10/04 13:12:44;;;;;;;9.50;1.92;;;;;;;;;;4974881;28;20045;-38
2023/10/04 13:15:12;;;;;;;7.20;1.30;;;;;;;;;;4982276;28;20064;-39
2023/10/04 13:17:40;;;;;;;5.50;1.10;;;;;;;;;;4978576;28;20045;-38
2023/10/04 13:20:16;;;;;;;5.50;0.87;;;;;;;;;;4981299;28;20459;-38
2023/10/04 13:22:45;;;;;;;7.22;1.20;;;;;;;;;;4973865;28;20116;-39
2023/10/04 13:25:13;;;;;;;6.10;1.00;;;;;;;;;;4987143;28;20503;-38
2023/10/04 13:27:40;;;;;;;5.82;1.10;;;;;;;;;;4970937;28;20859;-40
2023/10/04 13:30:09;;;;;;;6.78;1.10;;;;;;;;;;4983783;28;20079;-38
2023/10/04 13:32:37;;;;;;;5.87;0.60;;;;;;;;;;5011392;28;20053;-39
2023/10/04 13:35:09;;;;;;;6.80;1.30;;;;;;;;;;4981454;28;20037;-38
2023/10/04 13:37:38;;;;;;;5.18;1.00;;;;;;;;;;4987110;28;20616;-38
2023/10/04 13:40:18;;;;;;;6.80;1.33;;;;;;;;;;4974953;28;20096;-38
2023/10/04 13:42:46;;;;;;;4.72;1.00;;;;;;;;;;4981564;28;20056;-38
2023/10/04 13:45:14;;;;;;;6.37;1.27;;;;;;;;;;4974636;28;20091;-37
2023/10/04 13:47:42;;;;;;;5.13;1.17;;;;;;;;;;4973038;28;20060;-38
2023/10/04 13:50:10;;;;;;;9.45;1.65;;;;;;;;;;4977693;28;20984;-38
2023/10/04 13:52:40;;;;;;;7.32;1.33;;;;;;;;;;4978819;28;20111;-38
2023/10/04 13:55:11;;;;;;;5.38;1.15;;;;;;;;;;4981810;28;20042;-38
2023/10/04 13:57:39;;;;;;;9.33;1.30;;;;;;;;;;4979907;28;20496;-38
2023/10/04 14:00:15;;;;;;;9.35;1.20;;;;;;;;;;4982948;28;20041;-38
2023/10/04 14:02:44;;;;;;;7.20;1.00;;;;;;;;;;4970137;28;20061;-38
2023/10/04 14:05:18;;;;;;;5.72;1.20;;;;;;;;;;4982567;28;20080;-38
2023/10/04 14:07:51;;;;;;;6.45;1.20;;;;;;;;;;4973340;28;20048;-38
2023/10/04 14:10:22;;;;;;;8.23;1.07;;;;;;;;;;4980900;28;20065;-38
2023/10/04 14:12:52;;;;;;;10.40;1.30;;;;;;;;;;4969335;28;20507;-38
2023/10/04 14:15:20;;;;;;;8.52;1.58;;;;;;;;;;4983831;28;20052;-38
2023/10/04 14:17:49;;;;;;;6.25;1.23;;;;;;;;;;4977056;28;20056;-38
2023/10/04 14:20:18;;;;;;;7.30;1.45;;;;;;;;;;4980136;28;20128;-38
2023/10/04 14:22:48;;;;;;;7.30;1.77;;;;;;;;;;4977461;28;20058;-38
2023/10/04 14:25:16;;;;;;;7.47;1.13;;;;;;;;;;4980427;28;20060;-38
2023/10/04 14:27:44;;;;;;;10.27;1.00;;;;;;;;;;4977832;28;20080;-38
2023/10/04 14:30:13;;;;;;;6.40;0.85;;;;;;;;;;4975272;28;20076;-38
2023/10/04 14:32:41;;;;;;;7.07;0.90;;;;;;;;;;4983518;28;20049;-38
2023/10/04 14:35:10;;;;;;;6.27;1.20;;;;;;;;;;4976943;28;20069;-38
2023/10/04 14:37:38;;;;;;;6.38;1.17;;;;;;;;;;4980783;28;20060;-38
2023/10/04 14:40:13;;;;;;;6.78;1.33;;;;;;;;;;4971805;28;20246;-40
2023/10/04 14:42:43;;;;;;;6.03;1.20;;;;;;;;;;4982712;28;20140;-40
2023/10/04 14:45:11;;;;;;;5.88;0.93;;;;;;;;;;4947831;28;20045;-38
2023/10/04 14:47:38;;;;;;;13.53;1.57;;;;;;;;;;4988859;28;20049;-38
2023/10/04 14:50:08;;;;;;;6.28;0.80;;;;;;;;;;4967758;28;20338;-37
2023/10/04 14:52:36;;;;;;;8.07;0.90;;;;;;;;;;4979133;28;20056;-38